Time;durP1;ratioP1;P1;durP2;ratioP2;P2;SDS_P1;SDS_P2;PMS_P1;PMS_P2;Temp;Humidity;BMP_temperature;BMP_pressure;BME280_temperature;BME280_humidity;BME280_pressure;Samples;Min_cycle;Max_cycle;Signal;HPM_P1;HPM_P2
2021/08/03 00:02:23;;;;;;;2.60;2.40;;;14.80;99.90;;;;;;4968089;28;20457;-85
2021/08/03 00:04:54;;;;;;;3.90;2.43;;;14.80;99.90;;;;;;4965432;28;20869;-85
2021/08/03 00:07:20;;;;;;;3.57;3.27;;;14.80;99.90;;;;;;4964762;28;20448;-85
2021/08/03 00:09:51;;;;;;;2.27;2.10;;;14.80;99.90;;;;;;4965842;28;20478;-85
2021/08/03 00:12:19;;;;;;;2.17;2.07;;;14.80;99.90;;;;;;4965116;28;20551;-85
2021/08/03 00:14:48;;;;;;;5.40;2.70;;;14.80;99.90;;;;;;4965846;28;20821;-85
2021/08/03 00:17:17;;;;;;;3.17;2.00;;;14.90;99.90;;;;;;4964911;28;20497;-85
2021/08/03 00:19:45;;;;;;;2.63;2.43;;;14.90;99.90;;;;;;4964789;28;20477;-85
2021/08/03 00:22:15;;;;;;;2.70;2.40;;;14.90;99.90;;;;;;4965250;28;20460;-85
2021/08/03 00:24:44;;;;;;;2.50;2.40;;;15.00;99.90;;;;;;4965669;28;20460;-85
2021/08/03 00:27:12;;;;;;;2.50;2.30;;;15.00;99.90;;;;;;4965821;28;20448;-85
2021/08/03 00:29:39;;;;;;;4.43;2.50;;;15.00;99.90;;;;;;4965554;28;20489;-85
2021/08/03 00:32:07;;;;;;;2.60;2.40;;;15.00;99.90;;;;;;4965030;28;20440;-85
2021/08/03 00:34:36;;;;;;;2.47;1.93;;;15.10;99.90;;;;;;4965288;28;20465;-85
2021/08/03 00:37:04;;;;;;;2.60;2.40;;;15.10;99.90;;;;;;4965057;28;20858;-85
2021/08/03 00:39:31;;;;;;;3.40;2.40;;;15.10;99.90;;;;;;4964801;28;20478;-86
2021/08/03 00:42:00;;;;;;;2.47;2.00;;;15.10;99.90;;;;;;4964739;28;20461;-85
2021/08/03 00:44:43;;;;;;;2.27;1.97;;;15.20;99.90;;;;;;4964612;28;20460;-85
2021/08/03 00:47:10;;;;;;;2.33;1.77;;;15.20;99.90;;;;;;4965010;28;20453;-85
2021/08/03 00:49:37;;;;;;;2.10;2.00;;;15.20;99.90;;;;;;4964924;28;20488;-85
2021/08/03 00:52:05;;;;;;;2.10;1.77;;;15.30;99.90;;;;;;4965024;28;20445;-85
2021/08/03 00:54:32;;;;;;;2.50;2.40;;;15.30;99.90;;;;;;4965081;28;20461;-86
2021/08/03 00:56:59;;;;;;;2.80;2.20;;;15.20;99.90;;;;;;4964630;28;20485;-85
2021/08/03 00:59:26;;;;;;;2.33;2.10;;;15.30;99.90;;;;;;4964858;28;20489;-85
2021/08/03 01:01:55;;;;;;;2.27;2.03;;;15.30;99.90;;;;;;4964780;28;20821;-85
2021/08/03 01:04:22;;;;;;;2.30;2.10;;;15.30;99.90;;;;;;4964272;28;20442;-85
2021/08/03 01:06:58;;;;;;;1.80;1.70;;;15.20;99.90;;;;;;4964939;28;20453;-85
2021/08/03 01:09:34;;;;;;;2.53;2.43;;;15.20;99.90;;;;;;4964501;28;20481;-85
2021/08/03 01:12:10;;;;;;;2.30;2.20;;;15.20;99.90;;;;;;4963828;28;20561;-85
2021/08/03 01:14:39;;;;;;;2.40;2.20;;;15.20;99.90;;;;;;4964312;28;20437;-85
2021/08/03 01:17:17;;;;;;;2.73;2.53;;;15.20;99.90;;;;;;4964010;28;20491;-85
2021/08/03 01:19:50;;;;;;;2.67;2.00;;;15.20;99.90;;;;;;4963840;28;20481;-85
2021/08/03 01:22:34;;;;;;;2.03;1.93;;;15.20;99.90;;;;;;4963834;28;20449;-85
2021/08/03 01:25:15;;;;;;;1.87;1.77;;;15.10;99.90;;;;;;4963697;28;20460;-84
2021/08/03 01:28:11;;;;;;;2.20;2.00;;;15.00;99.90;;;;;;4963149;28;20449;-84
2021/08/03 01:30:40;;;;;;;2.73;2.50;;;15.00;99.90;;;;;;4962722;28;20477;-84
2021/08/03 01:33:08;;;;;;;2.53;2.33;;;15.00;99.90;;;;;;4962520;28;20453;-84
2021/08/03 01:35:36;;;;;;;2.13;1.93;;;15.00;99.90;;;;;;4962693;28;20468;-84
2021/08/03 01:38:05;;;;;;;2.20;2.10;;;15.00;99.90;;;;;;4963418;28;20463;-84
2021/08/03 01:40:33;;;;;;;2.40;2.27;;;14.90;99.90;;;;;;4962617;28;20491;-83
2021/08/03 01:43:02;;;;;;;3.43;2.83;;;14.90;99.90;;;;;;4961889;28;20993;-84
2021/08/03 01:45:32;;;;;;;2.87;2.60;;;14.90;99.90;;;;;;4962434;28;20453;-84
2021/08/03 01:48:01;;;;;;;2.47;2.13;;;14.90;99.90;;;;;;4962958;28;20453;-84
2021/08/03 01:50:29;;;;;;;2.60;2.40;;;14.90;99.90;;;;;;4962760;28;20487;-84
2021/08/03 01:52:57;;;;;;;2.63;2.43;;;15.00;99.90;;;;;;4962299;28;20460;-84
2021/08/03 01:55:25;;;;;;;2.73;2.53;;;15.00;99.90;;;;;;4962726;28;20487;-84
2021/08/03 02:24:12;;;;;;;3.60;2.70;;;15.00;99.90;;;;;;4979049;28;20476;-84
2021/08/03 02:27:47;;;;;;;;;;;;;;;;;;;;;
2021/08/03 02:43:51;;;;;;;;;;;;;;;;;;;;;
2021/08/03 02:53:29;;;;;;;;;;;;;;;;;;;;;
2021/08/03 03:12:47;;;;;;;3.10;2.90;;;14.90;99.90;;;;;;4970567;28;20844;-85
2021/08/03 03:19:01;;;;;;;4.10;2.70;;;14.80;99.90;;;;;;4922492;29;20431;-85
2021/08/03 03:25:17;;;;;;;3.47;3.17;;;14.70;99.90;;;;;;4856363;29;21058;-85
2021/08/03 03:28:27;;;;;;;;;;;;;;;;;;;;;
2021/08/03 03:47:40;;;;;;;3.23;2.90;;;14.60;99.90;;;;;;4887719;29;20533;-85
2021/08/03 04:29:01;;;;;;;3.93;2.80;;;14.40;99.90;;;;;;4910865;29;20448;-85
2021/08/03 04:32:05;;;;;;;;;;;;;;;;;;;;;
2021/08/03 04:54:04;;;;;;;3.43;3.13;;;14.50;99.90;;;;;;4961553;28;20452;-84
2021/08/03 04:56:31;;;;;;;3.03;2.60;;;14.60;99.90;;;;;;4964631;29;20481;-84
2021/08/03 04:58:58;;;;;;;3.43;3.10;;;14.60;99.90;;;;;;4964002;29;20456;-84
2021/08/03 05:01:24;;;;;;;3.00;2.80;;;14.60;99.90;;;;;;4963954;28;20457;-85
2021/08/03 05:03:51;;;;;;;3.27;2.90;;;14.70;99.90;;;;;;4964364;29;20853;-84
2021/08/03 05:06:18;;;;;;;4.57;3.43;;;14.70;99.90;;;;;;4963963;29;20457;-84
2021/08/03 05:08:44;;;;;;;2.97;2.67;;;14.80;99.90;;;;;;4965012;29;20820;-85
2021/08/03 05:11:12;;;;;;;3.20;3.00;;;14.80;99.90;;;;;;4964379;28;20433;-85
2021/08/03 05:13:39;;;;;;;3.40;3.10;;;14.90;99.90;;;;;;4963969;29;20461;-84
2021/08/03 05:16:06;;;;;;;3.33;3.03;;;14.90;99.90;;;;;;4964220;29;20459;-84
2021/08/03 05:18:33;;;;;;;3.80;2.90;;;15.00;99.90;;;;;;4964088;29;20488;-84
2021/08/03 05:21:00;;;;;;;3.00;2.70;;;15.10;99.90;;;;;;4964250;29;20453;-85
2021/08/03 05:23:26;;;;;;;3.80;3.37;;;15.10;99.90;;;;;;4964221;28;20480;-85
2021/08/03 05:25:53;;;;;;;2.67;2.53;;;15.20;99.90;;;;;;4965018;29;20439;-85
2021/08/03 05:28:21;;;;;;;3.50;3.20;;;15.20;99.90;;;;;;4964364;29;20449;-85
2021/08/03 05:30:49;;;;;;;3.27;2.53;;;15.20;99.90;;;;;;4963923;29;20445;-85
2021/08/03 05:33:16;;;;;;;5.60;2.70;;;15.30;99.90;;;;;;4964436;28;20490;-85
2021/08/03 05:35:43;;;;;;;3.30;2.67;;;15.30;99.90;;;;;;4964480;29;20463;-85
2021/08/03 05:38:10;;;;;;;2.83;2.43;;;15.40;99.90;;;;;;4964934;29;20492;-85
2021/08/03 05:40:36;;;;;;;3.33;3.00;;;15.40;99.90;;;;;;4964507;29;20464;-85
2021/08/03 05:43:03;;;;;;;2.67;2.47;;;15.50;99.90;;;;;;4964682;28;20503;-85
2021/08/03 05:45:31;;;;;;;2.57;2.37;;;15.60;99.90;;;;;;4964868;29;20453;-85
2021/08/03 05:47:58;;;;;;;2.33;2.00;;;15.60;99.90;;;;;;4963911;29;20836;-85
2021/08/03 05:50:25;;;;;;;2.20;1.93;;;15.50;99.90;;;;;;4965217;29;20791;-85
2021/08/03 05:52:52;;;;;;;2.77;2.57;;;15.50;99.90;;;;;;4963774;28;20851;-85
2021/08/03 05:55:18;;;;;;;2.47;2.27;;;15.60;99.90;;;;;;4964465;29;20467;-85
2021/08/03 05:57:45;;;;;;;3.00;2.77;;;15.60;99.90;;;;;;4965006;28;20502;-85
2021/08/03 06:00:13;;;;;;;5.67;3.10;;;15.70;99.90;;;;;;4964225;28;20456;-85
2021/08/03 06:02:41;;;;;;;3.27;2.50;;;15.70;99.90;;;;;;4963968;28;20476;-85
2021/08/03 06:05:09;;;;;;;4.13;2.80;;;15.80;99.90;;;;;;4963768;28;20442;-84
2021/08/03 06:07:41;;;;;;;3.20;2.90;;;15.80;99.90;;;;;;4963472;28;20455;-84
2021/08/03 06:10:12;;;;;;;2.70;2.50;;;15.90;99.90;;;;;;4963312;28;20448;-84
2021/08/03 06:12:39;;;;;;;3.33;3.13;;;15.90;99.90;;;;;;4962864;28;20484;-84
2021/08/03 06:15:07;;;;;;;3.33;3.10;;;16.10;99.90;;;;;;4963451;29;20817;-84
2021/08/03 06:17:36;;;;;;;2.30;2.10;;;16.10;99.90;;;;;;4963005;29;20493;-84
2021/08/03 06:20:07;;;;;;;2.60;2.50;;;16.20;99.90;;;;;;4963362;29;20461;-84
2021/08/03 06:22:39;;;;;;;1.90;1.80;;;16.20;99.90;;;;;;4963847;28;20481;-84
2021/08/03 06:25:08;;;;;;;3.03;2.03;;;16.30;99.90;;;;;;4963718;29;20442;-84
2021/08/03 06:27:35;;;;;;;2.73;2.00;;;16.40;99.90;;;;;;4962844;29;20446;-84
2021/08/03 06:30:04;;;;;;;2.67;2.47;;;16.40;99.90;;;;;;4963867;29;20834;-84
2021/08/03 06:32:31;;;;;;;2.27;2.17;;;16.40;99.90;;;;;;4962716;28;20481;-84
2021/08/03 06:34:58;;;;;;;3.00;2.03;;;16.50;99.90;;;;;;4963423;29;20461;-84
2021/08/03 06:37:26;;;;;;;3.83;2.90;;;16.60;99.90;;;;;;4963464;29;20855;-84
2021/08/03 06:39:53;;;;;;;4.60;1.80;;;16.70;99.90;;;;;;4963552;29;20462;-83
2021/08/03 06:42:34;;;;;;;2.10;1.90;;;16.80;99.90;;;;;;4963027;28;20951;-84
2021/08/03 06:45:04;;;;;;;1.57;1.47;;;16.90;99.90;;;;;;4963061;29;20453;-84
2021/08/03 06:47:39;;;;;;;2.87;1.90;;;17.00;99.90;;;;;;4962690;29;20451;-84
2021/08/03 06:50:09;;;;;;;4.37;2.20;;;17.20;99.90;;;;;;4962578;29;20543;-84
2021/08/03 06:52:38;;;;;;;2.00;1.90;;;17.30;99.90;;;;;;4962693;28;20537;-84
2021/08/03 06:55:08;;;;;;;2.20;2.10;;;17.50;99.90;;;;;;4962558;29;20457;-84
2021/08/03 06:57:36;;;;;;;2.37;1.60;;;17.60;99.90;;;;;;4963428;29;20494;-84
2021/08/03 07:00:07;;;;;;;1.80;1.70;;;17.70;99.90;;;;;;4963118;29;20454;-84
2021/08/03 07:02:37;;;;;;;2.40;2.00;;;17.80;99.90;;;;;;4962580;28;20867;-84
2021/08/03 07:05:09;;;;;;;2.30;1.90;;;17.90;99.90;;;;;;4963032;29;20466;-84
2021/08/03 07:07:37;;;;;;;3.40;1.87;;;17.80;99.90;;;;;;4962601;29;20455;-84
2021/08/03 07:10:06;;;;;;;1.73;1.63;;;17.90;99.90;;;;;;4961462;29;20453;-84
2021/08/03 07:12:34;;;;;;;2.50;2.30;;;18.00;99.90;;;;;;4961852;28;20490;-84
2021/08/03 07:15:01;;;;;;;1.50;1.40;;;18.00;99.90;;;;;;4962232;29;20935;-84
2021/08/03 07:17:30;;;;;;;1.60;1.50;;;18.10;99.90;;;;;;4962663;29;20784;-84
2021/08/03 07:19:58;;;;;;;1.50;1.40;;;18.20;99.90;;;;;;4962495;29;20458;-84
2021/08/03 07:22:25;;;;;;;3.30;1.43;;;18.30;99.90;;;;;;4961600;28;20491;-84
2021/08/03 07:24:54;;;;;;;2.00;1.90;;;18.50;99.90;;;;;;4970841;29;20539;-83
2021/08/03 07:27:20;;;;;;;2.30;1.43;;;18.70;99.90;;;;;;4974608;29;20459;-83
2021/08/03 07:29:47;;;;;;;2.43;2.23;;;18.80;99.90;;;;;;4974103;29;20442;-84
2021/08/03 07:32:16;;;;;;;2.50;1.57;;;18.90;99.90;;;;;;4961658;28;20475;-84
2021/08/03 07:34:43;;;;;;;1.83;1.70;;;18.90;99.90;;;;;;4962221;29;20460;-84
2021/08/03 07:37:11;;;;;;;2.23;2.00;;;18.90;99.90;;;;;;4961570;29;20464;-84
2021/08/03 07:39:39;;;;;;;2.10;1.77;;;18.90;99.90;;;;;;4961970;29;20452;-84
2021/08/03 07:42:08;;;;;;;1.90;1.80;;;18.90;99.90;;;;;;4962413;28;20479;-84
2021/08/03 07:44:36;;;;;;;1.73;1.63;;;18.90;99.90;;;;;;4961740;29;20457;-84
2021/08/03 07:47:03;;;;;;;1.87;1.70;;;18.90;99.90;;;;;;4962276;29;20543;-84
2021/08/03 07:49:30;;;;;;;1.87;1.77;;;19.10;99.90;;;;;;4962360;29;20451;-84
2021/08/03 07:51:57;;;;;;;2.07;1.70;;;19.20;99.90;;;;;;4961715;28;20856;-84
2021/08/03 07:54:24;;;;;;;2.20;2.00;;;19.20;99.90;;;;;;4962023;29;20535;-84
2021/08/03 07:56:51;;;;;;;2.00;1.90;;;19.40;99.90;;;;;;4961932;29;20461;-84
2021/08/03 07:59:19;;;;;;;4.43;2.10;;;19.50;99.90;;;;;;4962257;29;20487;-84
2021/08/03 08:01:46;;;;;;;2.03;1.93;;;19.50;99.90;;;;;;4961724;28;20482;-84
2021/08/03 08:04:12;;;;;;;1.83;1.73;;;19.60;99.90;;;;;;4962522;29;20467;-86
2021/08/03 08:06:39;;;;;;;2.30;2.20;;;19.70;99.90;;;;;;4961699;29;20455;-86
2021/08/03 08:09:06;;;;;;;2.93;2.73;;;19.60;99.90;;;;;;4961997;29;20462;-84
2021/08/03 08:11:33;;;;;;;1.90;1.60;;;19.70;99.90;;;;;;4962370;28;20472;-84
2021/08/03 08:14:00;;;;;;;2.10;1.83;;;19.80;99.90;;;;;;4964322;29;20456;-84
2021/08/03 08:16:28;;;;;;;1.93;1.83;;;19.90;99.90;;;;;;4964578;29;20456;-84
2021/08/03 08:18:54;;;;;;;1.90;1.80;;;19.90;99.90;;;;;;4964285;29;20487;-84
2021/08/03 08:21:21;;;;;;;1.93;1.83;;;20.10;99.90;;;;;;4962565;28;20459;-84
2021/08/03 08:23:48;;;;;;;1.87;1.77;;;20.30;99.90;;;;;;4965722;29;20464;-84
2021/08/03 08:26:15;;;;;;;1.83;1.70;;;20.30;99.90;;;;;;4965831;29;20468;-84
2021/08/03 08:28:41;;;;;;;1.70;1.60;;;20.40;99.90;;;;;;4966188;29;20457;-84
2021/08/03 08:31:08;;;;;;;1.90;1.80;;;20.50;99.90;;;;;;4966233;29;20459;-84
2021/08/03 08:33:36;;;;;;;1.97;1.87;;;20.60;99.90;;;;;;4965367;29;20860;-84
2021/08/03 08:36:03;;;;;;;3.20;2.90;;;20.70;99.90;;;;;;4967523;29;20832;-85
2021/08/03 08:38:30;;;;;;;1.97;1.70;;;20.80;99.90;;;;;;4969776;29;20489;-85
2021/08/03 08:40:57;;;;;;;3.53;1.90;;;20.80;99.90;;;;;;4968794;29;20449;-85
2021/08/03 08:43:25;;;;;;;1.83;1.70;;;20.60;99.90;;;;;;4969980;28;20480;-85
2021/08/03 08:45:55;;;;;;;1.80;1.70;;;20.70;99.90;;;;;;4969389;29;20445;-85
2021/08/03 08:48:22;;;;;;;2.03;1.93;;;20.70;99.90;;;;;;4970342;29;20875;-85
2021/08/03 08:50:54;;;;;;;1.60;1.50;;;20.70;99.90;;;;;;4970369;28;20461;-85
2021/08/03 08:53:24;;;;;;;1.47;1.37;;;20.90;99.40;;;;;;4968309;28;20532;-85
2021/08/03 08:55:51;;;;;;;2.27;2.17;;;20.80;99.10;;;;;;4968832;29;20471;-85
2021/08/03 08:58:17;;;;;;;2.27;1.60;;;20.80;99.40;;;;;;4969012;29;20492;-85
2021/08/03 09:00:44;;;;;;;1.83;1.70;;;20.80;99.80;;;;;;4970023;29;20457;-85
2021/08/03 09:03:11;;;;;;;1.73;1.63;;;20.90;99.60;;;;;;4969395;28;20477;-85
2021/08/03 09:05:45;;;;;;;2.10;1.70;;;20.90;99.30;;;;;;4969717;29;20458;-85
2021/08/03 09:11:53;;;;;;;1.90;1.80;;;20.90;99.70;;;;;;4952942;28;20502;-85
2021/08/03 09:18:05;;;;;;;;;;;;;;;;;;;;;
2021/08/03 09:24:35;;;;;;;2.00;1.50;;;20.80;99.80;;;;;;4854561;29;20446;-85
2021/08/03 14:04:36;;;;;;;;;;;;;;;;;;;;;
2021/08/03 14:11:02;;;;;;;;;;;;;;;;;;;;;
2021/08/03 15:03:54;;;;;;;;;;;;;;;;;;;;;
2021/08/03 15:06:44;;;;;;;1.60;1.20;;;25.40;90.90;;;;;;4988828;28;20476;-84
2021/08/03 15:09:36;;;;;;;0.93;0.93;;;25.20;91.50;;;;;;4988303;28;20458;-86
2021/08/03 15:12:59;;;;;;;;;;;;;;;;;;;;;
2021/08/03 15:16:16;;;;;;;;;;;;;;;;;;;;;
2021/08/03 15:19:21;;;;;;;1.00;1.00;;;25.40;91.90;;;;;;4964658;28;20496;-85
2021/08/03 15:41:12;;;;;;;0.80;0.80;;;25.40;91.40;;;;;;4820744;29;20462;-86
2021/08/03 15:43:42;;;;;;;0.93;0.90;;;25.30;91.90;;;;;;4906560;29;20693;-85
2021/08/03 15:46:42;;;;;;;;;;;;;;;;;;;;;
2021/08/03 15:49:29;;;;;;;1.10;1.10;;;24.30;93.00;;;;;;4986094;28;20475;-86
2021/08/03 16:14:35;;;;;;;1.23;1.17;;;22.50;96.60;;;;;;4820156;29;20471;-85
2021/08/03 16:17:42;;;;;;;1.80;1.70;;;22.30;96.60;;;;;;4936385;28;20530;-86
2021/08/03 16:20:56;;;;;;;;;;;;;;;;;;;;;
2021/08/03 16:32:44;;;;;;;1.20;1.10;;;21.50;95.30;;;;;;4968282;28;20487;-85
2021/08/03 16:38:25;;;;;;;1.33;1.23;;;21.20;95.90;;;;;;4990101;28;20799;-85
2021/08/03 16:41:10;;;;;;;1.50;1.40;;;21.10;95.90;;;;;;4991478;28;20518;-86
2021/08/03 16:43:55;;;;;;;1.70;1.17;;;20.90;95.60;;;;;;4988545;28;20471;-85
2021/08/03 16:49:47;;;;;;;1.77;1.63;;;20.50;96.30;;;;;;4894816;29;20525;-86
2021/08/03 16:52:16;;;;;;;2.50;1.50;;;20.40;96.80;;;;;;4930055;29;20533;-86
2021/08/03 16:54:49;;;;;;;1.70;1.60;;;20.10;97.10;;;;;;4986381;28;20455;-86
2021/08/03 16:57:33;;;;;;;;;;;;;;;;;;;;;
2021/08/03 17:00:42;;;;;;;2.20;2.00;;;20.10;97.10;;;;;;4990397;28;20525;-85
2021/08/03 17:03:25;;;;;;;2.10;1.90;;;19.90;97.30;;;;;;4985638;28;20502;-86
2021/08/03 17:05:56;;;;;;;2.20;1.33;;;19.90;97.70;;;;;;4991154;28;20466;-85
2021/08/03 17:08:30;;;;;;;1.83;1.73;;;19.80;97.50;;;;;;4990658;28;20509;-85
2021/08/03 17:11:01;;;;;;;1.43;1.27;;;19.80;98.30;;;;;;4991236;28;20454;-85
2021/08/03 17:13:42;;;;;;;1.37;1.27;;;19.80;98.20;;;;;;4990329;28;20486;-86
2021/08/03 17:16:14;;;;;;;3.90;3.60;;;19.70;98.60;;;;;;4990827;28;20475;-86
2021/08/03 17:18:52;;;;;;;1.50;1.40;;;19.50;99.90;;;;;;4989399;28;20488;-86
2021/08/03 17:21:25;;;;;;;1.27;1.27;;;19.30;99.90;;;;;;4989663;28;20999;-86
2021/08/03 17:26:59;;;;;;;1.27;1.17;;;19.00;99.90;;;;;;4989414;28;20459;-86
2021/08/03 17:29:28;;;;;;;2.13;1.23;;;18.80;99.90;;;;;;4989655;28;20454;-86
2021/08/03 17:32:03;;;;;;;1.47;1.37;;;18.60;99.90;;;;;;4989283;28;20509;-86
2021/08/03 17:34:38;;;;;;;1.60;1.50;;;18.40;99.90;;;;;;4990308;28;20456;-86
2021/08/03 17:37:24;;;;;;;1.37;1.17;;;18.30;99.90;;;;;;4989915;28;20971;-86
2021/08/03 17:40:20;;;;;;;;;;;;;;;;;;;;;
2021/08/03 17:43:01;;;;;;;2.00;1.30;;;17.90;99.90;;;;;;4990042;28;20473;-86
2021/08/03 17:45:37;;;;;;;1.27;1.17;;;17.90;99.90;;;;;;4989993;28;20518;-85
2021/08/03 17:48:13;;;;;;;0.90;0.80;;;17.60;99.90;;;;;;4990017;28;20462;-85
2021/08/03 17:50:46;;;;;;;4.83;1.53;;;17.50;99.90;;;;;;4989927;28;20465;-84
2021/08/03 17:53:27;;;;;;;1.60;1.50;;;17.40;99.90;;;;;;4989486;28;20900;-85
2021/08/03 17:56:06;;;;;;;1.27;1.20;;;17.40;99.90;;;;;;4989501;28;20450;-85
2021/08/03 17:58:34;;;;;;;1.40;1.30;;;17.30;99.90;;;;;;4989791;28;20476;-85
2021/08/03 18:01:04;;;;;;;1.40;1.30;;;17.30;99.90;;;;;;4989735;28;20489;-84
2021/08/03 18:06:21;;;;;;;2.00;1.10;;;17.50;99.90;;;;;;4988462;28;20461;-85
2021/08/03 18:08:51;;;;;;;1.63;1.53;;;17.60;99.90;;;;;;4990050;28;20485;-83
2021/08/03 18:11:46;;;;;;;2.20;1.37;;;17.70;99.90;;;;;;4989122;28;20450;-85
2021/08/03 18:14:42;;;;;;;1.90;1.20;;;17.70;99.90;;;;;;4988840;28;20541;-85
2021/08/03 18:26:52;;;;;;;2.53;2.33;;;18.00;99.90;;;;;;4948457;29;20530;-85
2021/08/03 18:29:31;;;;;;;1.67;1.53;;;18.00;99.90;;;;;;4918633;28;20525;-85
2021/08/03 18:31:59;;;;;;;2.13;2.03;;;17.90;99.90;;;;;;4988460;28;20474;-85
2021/08/03 18:34:33;;;;;;;1.77;1.67;;;18.00;99.90;;;;;;4988970;28;20460;-85
2021/08/03 18:37:03;;;;;;;1.60;1.50;;;17.90;99.90;;;;;;4989915;28;20439;-84
2021/08/03 18:39:34;;;;;;;1.97;1.83;;;17.70;99.90;;;;;;4989091;28;20461;-84
2021/08/03 18:42:09;;;;;;;3.53;2.70;;;17.70;99.90;;;;;;4989200;28;20592;-85
2021/08/03 18:44:46;;;;;;;1.60;1.50;;;17.60;99.90;;;;;;4989404;28;20457;-85
2021/08/03 18:47:14;;;;;;;2.03;1.83;;;17.60;99.90;;;;;;4989091;28;20454;-83
2021/08/03 18:52:56;;;;;;;2.63;2.43;;;17.60;99.90;;;;;;4907936;29;21003;-84
2021/08/03 18:55:35;;;;;;;1.90;1.80;;;17.50;99.90;;;;;;4968963;28;20964;-84
2021/08/03 18:58:05;;;;;;;1.63;1.53;;;17.40;99.90;;;;;;4988991;28;20536;-84
2021/08/03 19:17:31;;;;;;;;;;;;;;;;;;;;;
2021/08/03 19:38:51;;;;;;;1.80;1.70;;;17.00;99.90;;;;;;4763909;29;20519;-85
2021/08/03 19:41:21;;;;;;;2.10;2.00;;;17.00;99.90;;;;;;4891254;29;20500;-84
2021/08/03 19:43:49;;;;;;;2.07;1.87;;;17.10;99.90;;;;;;4969855;28;20468;-85
2021/08/03 19:46:24;;;;;;;2.73;2.17;;;17.10;99.90;;;;;;4989393;28;20452;-82
2021/08/03 19:48:54;;;;;;;2.23;2.13;;;17.10;99.90;;;;;;4995146;28;20452;-83
2021/08/03 19:51:23;;;;;;;2.03;1.87;;;17.00;99.90;;;;;;4995165;28;20445;-82
2021/08/03 19:53:52;;;;;;;2.13;2.03;;;17.10;99.90;;;;;;4988548;28;20457;-84
2021/08/03 19:56:21;;;;;;;2.47;2.27;;;17.10;99.90;;;;;;4984896;28;20443;-84
2021/08/03 19:58:50;;;;;;;1.77;1.67;;;17.10;99.90;;;;;;4982589;28;20449;-84
2021/08/03 20:01:17;;;;;;;3.30;1.97;;;17.00;99.90;;;;;;4983260;28;20540;-83
2021/08/03 20:03:44;;;;;;;2.07;1.97;;;17.00;99.90;;;;;;4981790;28;20459;-84
2021/08/03 20:06:11;;;;;;;2.63;2.27;;;17.00;99.90;;;;;;4981354;28;20453;-84
2021/08/03 20:08:38;;;;;;;2.20;2.10;;;17.10;99.90;;;;;;4981345;28;20453;-84
2021/08/03 20:11:06;;;;;;;3.17;2.83;;;17.10;99.90;;;;;;4980995;28;20452;-84
2021/08/03 20:13:36;;;;;;;2.43;2.23;;;17.10;99.90;;;;;;4980961;28;20473;-84
2021/08/03 20:16:05;;;;;;;2.20;2.10;;;17.10;99.90;;;;;;4981118;28;20462;-84
2021/08/03 20:18:35;;;;;;;1.90;1.43;;;17.10;99.90;;;;;;4983773;28;20450;-84
2021/08/03 20:21:03;;;;;;;2.53;2.33;;;17.10;99.90;;;;;;4985452;28;20494;-84
2021/08/03 20:23:30;;;;;;;2.40;2.20;;;17.00;99.90;;;;;;4984539;28;20857;-84
2021/08/03 20:26:01;;;;;;;1.93;1.73;;;17.00;99.90;;;;;;4986992;28;20441;-84
2021/08/03 20:28:36;;;;;;;1.70;1.60;;;17.00;99.90;;;;;;4984955;28;20464;-84
2021/08/03 20:31:04;;;;;;;3.93;2.57;;;17.00;99.90;;;;;;4984469;28;20452;-84
2021/08/03 20:33:35;;;;;;;2.43;2.27;;;16.90;99.90;;;;;;4984603;28;21249;-87
2021/08/03 20:36:03;;;;;;;2.60;2.40;;;16.90;99.90;;;;;;4985098;28;20502;-84
2021/08/03 20:38:33;;;;;;;3.00;2.80;;;16.80;99.90;;;;;;4984306;28;20481;-84
2021/08/03 20:41:01;;;;;;;2.40;2.20;;;16.80;99.90;;;;;;4984902;28;20543;-84
2021/08/03 20:43:31;;;;;;;2.57;2.37;;;16.70;99.90;;;;;;4984587;28;20507;-84
2021/08/03 20:45:59;;;;;;;2.07;1.90;;;16.70;99.90;;;;;;4983761;28;20440;-84
2021/08/03 20:48:27;;;;;;;2.23;2.03;;;16.80;99.90;;;;;;4984930;28;20456;-84
2021/08/03 20:50:57;;;;;;;2.07;1.97;;;16.80;99.90;;;;;;4984481;28;21019;-84
2021/08/03 20:53:25;;;;;;;1.73;1.63;;;16.90;99.90;;;;;;4984027;28;20480;-84
2021/08/03 20:55:54;;;;;;;2.60;2.13;;;16.70;99.90;;;;;;4984247;28;20465;-84
2021/08/03 20:58:21;;;;;;;2.00;1.90;;;16.60;99.90;;;;;;4983140;28;20467;-84
2021/08/03 21:00:52;;;;;;;2.23;2.03;;;16.60;99.90;;;;;;4984781;28;20809;-84
2021/08/03 21:03:21;;;;;;;1.80;1.70;;;16.60;99.90;;;;;;4983535;28;20487;-84
2021/08/03 21:05:54;;;;;;;2.00;1.90;;;16.70;99.90;;;;;;4984516;28;20483;-84
2021/08/03 21:08:26;;;;;;;4.73;2.20;;;16.80;99.90;;;;;;4983562;28;20459;-84
2021/08/03 21:10:55;;;;;;;2.03;1.90;;;16.70;99.90;;;;;;4984115;28;20460;-84
2021/08/03 21:39:18;;;;;;;2.03;1.83;;;16.50;99.90;;;;;;4750156;30;20541;-85
2021/08/03 21:41:45;;;;;;;4.47;2.30;;;16.50;99.90;;;;;;4870421;29;20504;-85
2021/08/03 21:44:11;;;;;;;2.40;2.20;;;16.50;99.90;;;;;;4942309;29;20976;-84
2021/08/03 21:46:38;;;;;;;3.10;2.00;;;16.50;99.90;;;;;;4943124;29;20445;-84
2021/08/03 21:49:05;;;;;;;2.83;2.67;;;16.50;99.90;;;;;;4950922;28;20467;-84
2021/08/03 21:51:32;;;;;;;2.03;1.93;;;16.60;99.90;;;;;;4982346;28;20487;-84
2021/08/03 21:53:58;;;;;;;2.57;2.23;;;16.60;99.90;;;;;;4983514;28;20452;-84
2021/08/03 21:56:27;;;;;;;2.73;2.30;;;16.60;99.90;;;;;;4982867;28;20460;-84
2021/08/03 21:58:53;;;;;;;2.07;1.83;;;16.50;99.90;;;;;;4983455;28;20463;-84
2021/08/03 22:01:20;;;;;;;3.87;2.10;;;16.40;99.90;;;;;;4982120;28;20498;-85
2021/08/03 22:03:47;;;;;;;2.30;1.80;;;16.40;99.90;;;;;;4983178;28;20459;-84
2021/08/03 22:06:13;;;;;;;3.30;2.60;;;16.50;99.90;;;;;;4982814;28;20452;-84
2021/08/03 22:08:41;;;;;;;2.30;2.10;;;16.50;99.90;;;;;;4982915;28;20965;-84
2021/08/03 22:11:07;;;;;;;2.43;2.20;;;16.40;99.90;;;;;;4982704;28;20470;-84
2021/08/03 22:13:36;;;;;;;2.50;2.33;;;16.50;99.90;;;;;;4983074;28;20478;-84
2021/08/03 22:16:03;;;;;;;2.43;2.23;;;16.50;99.90;;;;;;4982653;28;20889;-84
2021/08/03 22:18:29;;;;;;;3.60;2.67;;;16.40;99.90;;;;;;4982620;28;20463;-84
2021/08/03 22:20:57;;;;;;;2.07;1.87;;;16.50;99.90;;;;;;4982974;28;20821;-85
2021/08/03 22:23:23;;;;;;;2.57;2.37;;;16.40;99.90;;;;;;4982362;28;20516;-85
2021/08/03 22:25:52;;;;;;;2.00;1.90;;;16.40;99.90;;;;;;4981840;28;20464;-84
2021/08/03 22:28:19;;;;;;;1.80;1.70;;;16.40;99.90;;;;;;4981994;28;20463;-85
2021/08/03 22:30:47;;;;;;;2.20;2.00;;;16.30;99.90;;;;;;4983010;28;20460;-85
2021/08/03 22:33:14;;;;;;;3.13;2.03;;;16.40;99.90;;;;;;4981212;28;20482;-84
2021/08/03 22:35:40;;;;;;;2.30;2.00;;;16.40;99.90;;;;;;4981765;28;20459;-85
2021/08/03 22:38:07;;;;;;;4.73;3.00;;;16.40;99.90;;;;;;4982270;28;20461;-85
2021/08/03 22:40:34;;;;;;;2.43;2.23;;;16.40;99.90;;;;;;4982611;28;20535;-84
2021/08/03 22:43:02;;;;;;;2.50;2.30;;;16.40;99.90;;;;;;4982471;28;20503;-84
2021/08/03 22:45:29;;;;;;;2.30;2.20;;;16.20;99.90;;;;;;4982621;28;20467;-85
2021/08/03 22:47:57;;;;;;;2.33;2.13;;;16.20;99.90;;;;;;4983566;28;20454;-85
2021/08/03 22:50:24;;;;;;;2.80;2.60;;;16.20;99.90;;;;;;4983057;28;20459;-87
2021/08/03 22:52:51;;;;;;;2.50;2.30;;;16.10;99.90;;;;;;4983264;28;20461;-85
2021/08/03 22:55:17;;;;;;;2.43;2.03;;;16.00;99.90;;;;;;4983164;28;20454;-85
2021/08/03 22:57:44;;;;;;;2.60;2.40;;;16.10;99.90;;;;;;4982614;28;20450;-85
2021/08/03 23:00:12;;;;;;;2.90;2.70;;;16.00;99.90;;;;;;4983107;28;20460;-85
2021/08/03 23:02:39;;;;;;;3.13;2.83;;;16.10;99.90;;;;;;4982482;28;20504;-84
2021/08/03 23:05:08;;;;;;;2.60;2.10;;;16.10;99.90;;;;;;4982414;28;20456;-85
2021/08/03 23:07:37;;;;;;;3.10;2.90;;;16.20;99.90;;;;;;4983256;28;20451;-85
2021/08/03 23:10:06;;;;;;;1.97;1.87;;;16.20;99.90;;;;;;4983666;28;20812;-85
2021/08/03 23:12:33;;;;;;;2.17;1.83;;;16.10;99.90;;;;;;4983435;28;20475;-85
2021/08/03 23:14:59;;;;;;;2.07;1.87;;;16.00;99.90;;;;;;4982583;28;20456;-85
